createdAt,value
2022-09-24T00:00:20.040Z,0.00
2022-09-24T00:01:19.989Z,0.00
2022-09-24T00:02:20.037Z,0.00
2022-09-24T00:03:20.131Z,0.00
2022-09-24T00:04:20.177Z,0.00
2022-09-24T00:05:19.976Z,0.00
2022-09-24T00:06:19.936Z,0.00
2022-09-24T00:07:19.925Z,0.00
2022-09-24T00:08:19.913Z,0.00
2022-09-24T00:09:19.923Z,0.00
2022-09-24T00:10:19.913Z,0.00
2022-09-24T00:11:19.875Z,0.00
2022-09-24T00:12:19.868Z,0.00
2022-09-24T00:13:19.853Z,0.00
2022-09-24T00:14:19.844Z,0.00
2022-09-24T00:15:19.835Z,0.00
2022-09-24T00:16:19.959Z,0.00
2022-09-24T00:17:19.821Z,0.00
2022-09-24T00:18:19.797Z,0.00
2022-09-24T00:19:19.793Z,0.00
2022-09-24T00:20:19.785Z,0.00
2022-09-24T00:21:19.790Z,0.00
2022-09-24T00:22:19.759Z,0.00
2022-09-24T00:23:19.741Z,0.00
2022-09-24T00:24:19.741Z,0.00
2022-09-24T00:25:19.731Z,0.00
2022-09-24T00:26:19.734Z,0.00
2022-09-24T00:27:19.701Z,0.00
2022-09-24T00:28:19.689Z,0.00
2022-09-24T00:29:19.679Z,0.00
2022-09-24T00:30:19.669Z,0.00
2022-09-24T00:31:19.743Z,0.00
2022-09-24T00:32:19.688Z,0.00
2022-09-24T00:33:19.634Z,0.00
2022-09-24T00:34:19.631Z,0.00
2022-09-24T00:35:19.618Z,0.00
2022-09-24T00:36:19.600Z,0.00
2022-09-24T00:37:19.613Z,0.00
2022-09-24T00:38:19.580Z,0.00
2022-09-24T00:39:19.576Z,0.00
2022-09-24T00:40:19.619Z,0.00
2022-09-24T00:41:19.543Z,0.00
2022-09-24T00:42:19.561Z,0.00
2022-09-24T00:43:19.523Z,0.00
2022-09-24T00:44:19.511Z,0.00
2022-09-24T00:45:19.507Z,0.00
2022-09-24T00:46:19.608Z,0.00
2022-09-24T00:47:19.505Z,0.00
2022-09-24T00:48:19.488Z,0.00
2022-09-24T00:49:19.480Z,0.00
2022-09-24T00:50:19.452Z,0.00
2022-09-24T00:51:19.441Z,0.00
2022-09-24T00:52:19.457Z,0.00
2022-09-24T00:53:19.413Z,0.00
2022-09-24T00:54:19.422Z,0.00
2022-09-24T00:55:19.394Z,0.00
2022-09-24T00:56:19.382Z,0.00
2022-09-24T00:57:19.407Z,0.00
2022-09-24T00:58:19.363Z,0.00
2022-09-24T00:59:19.355Z,0.00
2022-09-24T01:00:19.339Z,0.00
2022-09-24T01:01:19.386Z,0.00
2022-09-24T01:02:19.514Z,0.00
2022-09-24T01:03:19.306Z,0.00
2022-09-24T01:04:19.339Z,0.00
2022-09-24T01:05:19.314Z,0.00
2022-09-24T01:06:19.278Z,0.00
2022-09-24T01:07:19.284Z,0.00
2022-09-24T01:08:19.249Z,0.00
2022-09-24T01:09:19.267Z,0.00
2022-09-24T01:10:19.228Z,0.00
2022-09-24T01:11:19.239Z,0.00
2022-09-24T01:12:19.205Z,0.00
2022-09-24T01:13:19.219Z,0.00
2022-09-24T01:14:19.188Z,0.00
2022-09-24T01:15:19.173Z,0.00
2022-09-24T01:16:19.333Z,0.00
2022-09-24T01:17:19.154Z,0.00
2022-09-24T01:18:19.165Z,0.00
2022-09-24T01:19:19.135Z,0.00
2022-09-24T01:20:19.178Z,0.00
2022-09-24T01:21:19.112Z,0.00
2022-09-24T01:22:19.102Z,0.00
2022-09-24T01:23:19.115Z,0.00
2022-09-24T01:24:19.088Z,0.00
2022-09-24T01:25:19.071Z,0.00
2022-09-24T01:26:19.073Z,0.00
2022-09-24T01:27:19.048Z,0.00
2022-09-24T01:28:19.063Z,0.00
2022-09-24T01:29:19.024Z,0.00
2022-09-24T01:30:19.015Z,0.00
2022-09-24T01:31:19.040Z,0.00
2022-09-24T01:32:18.994Z,0.00
2022-09-24T01:33:18.977Z,0.00
2022-09-24T01:34:18.995Z,0.00
2022-09-24T01:35:18.959Z,0.00
2022-09-24T01:36:18.968Z,0.00
2022-09-24T01:37:18.936Z,0.00
2022-09-24T01:38:18.927Z,0.00
2022-09-24T01:39:18.940Z,0.00
2022-09-24T01:40:18.948Z,0.00
2022-09-24T01:41:18.894Z,0.00
2022-09-24T01:42:18.885Z,0.00
2022-09-24T01:43:18.875Z,0.00
2022-09-24T01:44:18.885Z,0.00
2022-09-24T01:45:18.853Z,0.00
2022-09-24T01:46:18.883Z,0.00
2022-09-24T01:47:18.826Z,0.00
2022-09-24T01:48:18.814Z,0.00
2022-09-24T01:49:18.818Z,0.00
2022-09-24T01:50:18.795Z,0.00
2022-09-24T01:51:18.780Z,0.00
2022-09-24T01:52:18.792Z,0.00
2022-09-24T01:53:18.762Z,0.00
2022-09-24T01:54:18.776Z,0.00
2022-09-24T01:55:18.742Z,0.00
2022-09-24T01:56:18.747Z,0.00
2022-09-24T01:57:18.724Z,0.00
2022-09-24T01:58:18.707Z,0.00
2022-09-24T01:59:18.699Z,0.00
2022-09-24T02:00:18.694Z,0.00
2022-09-24T02:01:18.735Z,0.00
2022-09-24T02:02:18.760Z,0.00
2022-09-24T02:03:18.654Z,0.00
2022-09-24T02:04:18.650Z,0.00
2022-09-24T02:05:18.637Z,0.00
2022-09-24T02:06:18.650Z,0.00
2022-09-24T02:07:18.614Z,0.00
2022-09-24T02:08:18.618Z,0.00
2022-09-24T02:09:18.595Z,0.00
2022-09-24T02:10:18.597Z,0.00
2022-09-24T02:11:18.570Z,0.00
2022-09-24T02:12:18.572Z,0.00
2022-09-24T02:13:18.548Z,0.00
2022-09-24T02:14:18.539Z,0.00
2022-09-24T02:15:18.550Z,0.00
2022-09-24T02:16:18.569Z,0.00
2022-09-24T02:17:18.535Z,0.00
2022-09-24T02:18:18.495Z,0.00
2022-09-24T02:19:18.485Z,0.00
2022-09-24T02:20:18.473Z,0.00
2022-09-24T02:21:18.486Z,0.00
2022-09-24T02:22:18.473Z,0.00
2022-09-24T02:23:18.438Z,0.00
2022-09-24T02:24:18.447Z,0.00
2022-09-24T02:25:18.437Z,0.00
2022-09-24T02:26:18.406Z,0.00
2022-09-24T02:27:18.416Z,0.00
2022-09-24T02:28:18.382Z,0.00
2022-09-24T02:29:18.372Z,0.00
2022-09-24T02:30:18.362Z,0.00
2022-09-24T02:31:18.421Z,0.00
2022-09-24T02:32:18.370Z,0.00
2022-09-24T02:33:18.334Z,0.00
2022-09-24T02:34:18.320Z,0.00
2022-09-24T02:35:18.307Z,0.00
2022-09-24T02:36:18.298Z,0.00
2022-09-24T02:37:18.315Z,0.00
2022-09-24T02:38:18.303Z,0.00
2022-09-24T02:39:18.272Z,0.00
2022-09-24T02:40:18.339Z,0.00
2022-09-24T02:41:18.250Z,0.00
2022-09-24T02:42:18.231Z,0.00
2022-09-24T02:43:18.248Z,0.00
2022-09-24T02:44:18.217Z,0.00
2022-09-24T02:45:18.202Z,0.00
2022-09-24T02:46:18.266Z,0.00
2022-09-24T02:47:18.178Z,0.00
2022-09-24T02:48:18.190Z,0.00
2022-09-24T02:49:18.178Z,0.00
2022-09-24T02:50:18.148Z,0.00
2022-09-24T02:51:18.145Z,0.00
2022-09-24T02:52:18.151Z,0.00
2022-09-24T02:53:18.117Z,0.00
2022-09-24T02:54:18.129Z,0.00
2022-09-24T02:55:25.159Z,0.00
2022-09-24T02:56:18.085Z,0.00
2022-09-24T02:57:18.097Z,0.00
2022-09-24T02:58:18.071Z,0.00
2022-09-24T02:59:18.054Z,0.00
2022-09-24T03:00:18.120Z,0.00
2022-09-24T03:01:18.082Z,0.00
2022-09-24T03:02:18.123Z,0.00
2022-09-24T03:03:18.054Z,0.00
2022-09-24T03:04:17.997Z,0.00
2022-09-24T03:05:18.012Z,0.00
2022-09-24T03:06:17.984Z,0.00
2022-09-24T03:07:18.005Z,0.00
2022-09-24T03:08:17.987Z,0.00
2022-09-24T03:09:17.977Z,0.00
2022-09-24T03:10:17.932Z,0.00
2022-09-24T03:11:18.982Z,0.00
2022-09-24T03:12:17.916Z,0.00
2022-09-24T03:13:17.921Z,0.00
2022-09-24T03:14:17.901Z,0.00
2022-09-24T03:15:17.901Z,0.00
2022-09-24T03:16:17.949Z,0.00
2022-09-24T03:17:17.857Z,0.00
2022-09-24T03:18:17.869Z,0.00
2022-09-24T03:19:17.844Z,0.00
2022-09-24T03:20:17.831Z,0.00
2022-09-24T03:21:17.825Z,0.00
2022-09-24T03:22:17.807Z,0.00
2022-09-24T03:23:17.824Z,0.00
2022-09-24T03:24:17.788Z,0.00
2022-09-24T03:25:17.772Z,0.00
2022-09-24T03:26:17.762Z,0.00
2022-09-24T03:27:17.769Z,0.00
2022-09-24T03:28:17.754Z,0.00
2022-09-24T03:29:17.750Z,0.00
2022-09-24T03:30:17.742Z,0.00
2022-09-24T03:31:17.765Z,0.00
2022-09-24T03:32:17.693Z,0.00
2022-09-24T03:33:17.699Z,0.00
2022-09-24T03:34:17.694Z,0.00
2022-09-24T03:35:17.689Z,0.00
2022-09-24T03:36:17.667Z,0.00
2022-09-24T03:37:17.642Z,0.00
2022-09-24T03:38:17.634Z,0.00
2022-09-24T03:39:17.624Z,0.00
2022-09-24T03:40:17.741Z,0.00
2022-09-24T03:41:17.636Z,0.00
2022-09-24T03:42:17.591Z,0.00
2022-09-24T03:43:17.680Z,0.00
2022-09-24T03:44:17.580Z,0.00
2022-09-24T03:45:17.556Z,0.00
2022-09-24T03:46:17.700Z,0.00
2022-09-24T03:47:17.540Z,0.00
2022-09-24T03:48:17.525Z,0.00
2022-09-24T03:49:17.513Z,0.00
2022-09-24T03:50:17.508Z,0.00
2022-09-24T03:51:17.515Z,0.00
2022-09-24T03:52:17.480Z,0.00
2022-09-24T03:53:17.500Z,0.00
2022-09-24T03:54:17.467Z,0.00
2022-09-24T03:55:17.451Z,0.00
2022-09-24T03:56:17.499Z,0.00
2022-09-24T03:57:17.494Z,0.00
2022-09-24T03:58:17.441Z,0.00
2022-09-24T03:59:17.428Z,0.00
2022-09-24T04:00:17.394Z,0.00
2022-09-24T04:01:17.506Z,0.00
2022-09-24T04:02:17.376Z,0.00
2022-09-24T04:03:17.424Z,0.00
2022-09-24T04:04:17.352Z,0.00
2022-09-24T04:05:17.341Z,0.00
2022-09-24T04:06:22.041Z,0.00
2022-09-24T04:07:18.318Z,0.00
2022-09-24T04:08:17.355Z,0.00
2022-09-24T04:09:17.307Z,0.00
2022-09-24T04:10:17.298Z,0.00
2022-09-24T04:11:17.300Z,0.00
2022-09-24T04:12:17.289Z,0.00
2022-09-24T04:13:17.260Z,0.00
2022-09-24T04:14:17.246Z,0.00
2022-09-24T04:15:17.339Z,0.00
2022-09-24T04:16:17.482Z,0.00
2022-09-24T04:17:17.211Z,0.00
2022-09-24T04:18:17.251Z,0.00
2022-09-24T04:19:17.199Z,0.00
2022-09-24T04:20:17.183Z,0.00
2022-09-24T04:21:17.213Z,0.00
2022-09-24T04:22:17.167Z,0.00
2022-09-24T04:23:17.167Z,0.00
2022-09-24T04:24:17.183Z,0.00
2022-09-24T04:25:17.134Z,0.00
2022-09-24T04:26:17.117Z,0.00
2022-09-24T04:27:17.153Z,0.00
2022-09-24T04:28:17.110Z,0.00
2022-09-24T04:29:17.089Z,0.00
2022-09-24T04:30:17.078Z,0.00
2022-09-24T04:31:17.170Z,0.00
2022-09-24T04:32:17.073Z,0.00
2022-09-24T04:33:17.037Z,0.00
2022-09-24T04:34:17.064Z,0.00
2022-09-24T04:35:17.017Z,0.00
2022-09-24T04:36:17.006Z,0.00
2022-09-24T04:37:16.996Z,0.00
2022-09-24T04:38:16.995Z,0.00
2022-09-24T04:39:16.973Z,0.00
2022-09-24T04:40:17.125Z,0.00
2022-09-24T04:41:16.970Z,0.00
2022-09-24T04:42:16.962Z,0.00
2022-09-24T04:43:16.941Z,0.00
2022-09-24T04:44:16.919Z,0.00
2022-09-24T04:45:16.946Z,0.00
2022-09-24T04:46:16.970Z,0.00
2022-09-24T04:47:16.922Z,0.00
2022-09-24T04:48:16.883Z,0.00
2022-09-24T04:49:16.882Z,0.00
2022-09-24T04:50:16.915Z,0.00
2022-09-24T04:51:16.886Z,0.00
2022-09-24T04:52:16.853Z,0.00
2022-09-24T04:53:16.833Z,0.00
2022-09-24T04:54:16.818Z,0.00
2022-09-24T04:55:16.839Z,0.00
2022-09-24T04:56:16.795Z,0.00
2022-09-24T04:57:16.804Z,0.00
2022-09-24T04:58:16.770Z,0.00
2022-09-24T04:59:16.760Z,0.00
2022-09-24T05:00:16.768Z,0.00
2022-09-24T05:01:16.803Z,0.00
2022-09-24T05:02:16.804Z,0.00
2022-09-24T05:03:16.920Z,0.00
2022-09-24T05:04:16.723Z,0.00
2022-09-24T05:05:16.724Z,0.00
2022-09-24T05:06:16.702Z,0.00
2022-09-24T05:07:16.673Z,0.00
2022-09-24T05:08:16.669Z,0.00
2022-09-24T05:09:17.121Z,0.00
2022-09-24T05:10:16.642Z,0.00
2022-09-24T05:11:16.663Z,0.00
2022-09-24T05:12:16.649Z,0.00
2022-09-24T05:13:16.606Z,0.00
2022-09-24T05:14:16.601Z,0.00
2022-09-24T05:15:16.587Z,0.00
2022-09-24T05:16:16.690Z,0.00
2022-09-24T05:17:16.565Z,0.00
2022-09-24T05:18:16.602Z,0.00
2022-09-24T05:19:16.564Z,0.00
2022-09-24T05:20:16.556Z,0.00
2022-09-24T05:21:16.547Z,0.00
2022-09-24T05:22:16.550Z,0.00
2022-09-24T05:23:16.502Z,0.00
2022-09-24T05:24:16.487Z,0.00
2022-09-24T05:25:16.481Z,0.00
2022-09-24T05:26:16.546Z,0.00
2022-09-24T05:27:16.457Z,0.00
2022-09-24T05:28:16.446Z,0.00
2022-09-24T05:29:16.442Z,0.00
2022-09-24T05:30:16.426Z,0.00
2022-09-24T05:31:16.469Z,0.00
2022-09-24T05:32:16.410Z,0.00
2022-09-24T05:33:16.406Z,0.00
2022-09-24T05:34:16.422Z,0.00
2022-09-24T05:35:16.392Z,0.00
2022-09-24T05:36:16.395Z,0.00
2022-09-24T05:37:16.351Z,0.00
2022-09-24T05:38:16.346Z,0.00
2022-09-24T05:39:16.328Z,0.00
2022-09-24T05:40:16.358Z,0.00
2022-09-24T05:41:16.311Z,0.00
2022-09-24T05:42:16.331Z,0.00
2022-09-24T05:43:16.287Z,0.00
2022-09-24T05:44:16.272Z,0.00
2022-09-24T05:45:16.261Z,0.00
2022-09-24T05:46:16.270Z,0.00
2022-09-24T05:47:16.258Z,0.00
2022-09-24T05:48:16.232Z,0.00
2022-09-24T05:49:16.219Z,0.00
2022-09-24T05:50:16.212Z,0.00
2022-09-24T05:51:16.216Z,0.00
2022-09-24T05:52:16.205Z,5.62
2022-09-24T05:53:16.186Z,5.62
2022-09-24T05:54:16.195Z,5.62
2022-09-24T05:55:16.168Z,5.62
2022-09-24T05:56:16.159Z,5.62
2022-09-24T05:57:16.154Z,5.62
2022-09-24T05:58:16.129Z,5.62
2022-09-24T05:59:16.135Z,5.62
2022-09-24T06:00:16.119Z,5.62
2022-09-24T06:01:16.094Z,5.62
2022-09-24T06:02:16.131Z,5.62
2022-09-24T06:03:16.210Z,5.62
2022-09-24T06:04:16.069Z,5.62
2022-09-24T06:05:16.059Z,5.62
2022-09-24T06:06:16.034Z,5.62
2022-09-24T06:07:16.145Z,5.62
2022-09-24T06:08:16.018Z,5.62
2022-09-24T06:09:16.004Z,5.62
2022-09-24T06:10:15.998Z,5.62
2022-09-24T06:11:16.006Z,5.62
2022-09-24T06:12:15.982Z,5.62
2022-09-24T06:13:15.987Z,5.62
2022-09-24T06:14:15.953Z,5.62
2022-09-24T06:15:15.938Z,5.62
2022-09-24T06:16:16.057Z,5.62
2022-09-24T06:17:15.977Z,5.62
2022-09-24T06:18:15.947Z,5.62
2022-09-24T06:19:15.899Z,5.62
2022-09-24T06:20:15.887Z,5.62
2022-09-24T06:21:15.924Z,5.62
2022-09-24T06:22:15.887Z,5.62
2022-09-24T06:23:15.872Z,5.62
2022-09-24T06:24:15.843Z,5.62
2022-09-24T06:25:15.886Z,5.62
2022-09-24T06:26:15.819Z,5.62
2022-09-24T06:27:15.850Z,5.62
2022-09-24T06:28:15.803Z,5.62
2022-09-24T06:29:15.840Z,5.62
2022-09-24T06:30:15.810Z,5.62
2022-09-24T06:31:15.877Z,5.62
2022-09-24T06:32:15.765Z,5.62
2022-09-24T06:33:15.762Z,5.62
2022-09-24T06:34:15.761Z,5.62
2022-09-24T06:35:15.721Z,5.62
2022-09-24T06:36:15.733Z,5.62
2022-09-24T06:37:15.702Z,5.62
2022-09-24T06:38:15.707Z,5.62
2022-09-24T06:39:15.796Z,11.25
2022-09-24T06:40:15.741Z,11.25
2022-09-24T06:41:15.682Z,11.25
2022-09-24T06:42:15.670Z,11.25
2022-09-24T06:43:15.633Z,11.25
2022-09-24T06:44:15.629Z,11.25
2022-09-24T06:45:15.615Z,11.25
2022-09-24T06:46:15.825Z,11.25
2022-09-24T06:47:15.644Z,11.25
2022-09-24T06:48:15.645Z,11.25
2022-09-24T06:49:15.568Z,11.25
2022-09-24T06:50:15.564Z,11.25
2022-09-24T06:51:15.572Z,11.25
2022-09-24T06:52:15.611Z,11.25
2022-09-24T06:53:15.538Z,11.25
2022-09-24T06:54:15.526Z,11.25
2022-09-24T06:55:15.541Z,11.25
2022-09-24T06:56:15.495Z,11.25
2022-09-24T06:57:15.544Z,11.25
2022-09-24T06:58:15.505Z,11.25
2022-09-24T06:59:15.464Z,11.25
2022-09-24T07:00:15.455Z,11.25
2022-09-24T07:01:15.490Z,11.25
2022-09-24T07:02:15.550Z,11.25
2022-09-24T07:03:15.446Z,11.25
2022-09-24T07:04:15.431Z,11.25
2022-09-24T07:05:15.405Z,11.25
2022-09-24T07:06:15.391Z,11.25
2022-09-24T07:07:15.377Z,11.25
2022-09-24T07:08:15.417Z,11.25
2022-09-24T07:09:15.375Z,11.25
2022-09-24T07:10:15.354Z,11.25
2022-09-24T07:11:15.435Z,11.25
2022-09-24T07:12:15.324Z,11.25
2022-09-24T07:13:15.372Z,11.25
2022-09-24T07:14:15.366Z,11.25
2022-09-24T07:15:15.313Z,11.25
2022-09-24T07:16:15.328Z,11.25
2022-09-24T07:17:15.271Z,11.25
2022-09-24T07:18:15.286Z,11.25
2022-09-24T07:19:15.286Z,11.25
2022-09-24T07:20:15.248Z,11.25
2022-09-24T07:21:15.239Z,11.25
2022-09-24T07:22:15.220Z,11.25
2022-09-24T07:23:15.230Z,16.88
2022-09-24T07:24:15.223Z,16.88
2022-09-24T07:25:15.187Z,16.88
2022-09-24T07:26:15.184Z,16.88
2022-09-24T07:27:15.182Z,16.88
2022-09-24T07:28:15.161Z,16.88
2022-09-24T07:29:15.156Z,22.50
2022-09-24T07:30:15.127Z,22.50
2022-09-24T07:31:15.204Z,22.50
2022-09-24T07:32:15.133Z,28.12
2022-09-24T07:33:15.101Z,28.12
2022-09-24T07:34:15.116Z,28.12
2022-09-24T07:35:15.076Z,28.12
2022-09-24T07:36:15.075Z,28.12
2022-09-24T07:37:15.056Z,28.12
2022-09-24T07:38:15.051Z,28.12
2022-09-24T07:39:15.084Z,28.12
2022-09-24T07:40:15.086Z,33.75
2022-09-24T07:41:15.050Z,33.75
2022-09-24T07:42:15.001Z,28.12
2022-09-24T07:43:15.026Z,28.12
2022-09-24T07:44:14.988Z,28.12
2022-09-24T07:45:14.977Z,33.75
2022-09-24T07:46:15.041Z,33.75
2022-09-24T07:47:15.756Z,33.75
2022-09-24T07:48:14.960Z,39.38
2022-09-24T07:49:14.963Z,39.38
2022-09-24T07:50:14.918Z,39.38
2022-09-24T07:51:14.916Z,39.38
2022-09-24T07:52:14.888Z,39.38
2022-09-24T07:53:14.902Z,39.38
2022-09-24T07:54:17.246Z,33.75
2022-09-24T07:55:14.866Z,33.75
2022-09-24T07:56:14.885Z,33.75
2022-09-24T07:57:14.862Z,33.75
2022-09-24T07:58:14.828Z,33.75
2022-09-24T07:59:14.855Z,33.75
2022-09-24T08:00:14.810Z,28.12
2022-09-24T08:01:14.880Z,28.12
2022-09-24T08:02:14.868Z,28.12
2022-09-24T08:03:14.773Z,28.12
2022-09-24T08:04:14.933Z,28.12
2022-09-24T08:05:14.747Z,28.12
2022-09-24T08:06:14.755Z,28.12
2022-09-24T08:07:14.725Z,28.12
2022-09-24T08:08:14.730Z,28.12
2022-09-24T08:09:14.735Z,28.12
2022-09-24T08:10:14.703Z,28.12
2022-09-24T08:11:14.704Z,28.12
2022-09-24T08:12:14.673Z,28.12
2022-09-24T08:13:14.663Z,28.12
2022-09-24T08:14:14.676Z,28.12
2022-09-24T08:15:14.652Z,28.12
2022-09-24T08:16:14.656Z,28.12
2022-09-24T08:17:14.638Z,28.12
2022-09-24T08:18:14.604Z,28.12
2022-09-24T08:19:14.595Z,28.12
2022-09-24T08:20:14.583Z,28.12
2022-09-24T08:21:14.587Z,28.12
2022-09-24T08:22:14.590Z,28.12
2022-09-24T08:23:14.552Z,28.12
2022-09-24T08:24:14.583Z,28.12
2022-09-24T08:25:14.541Z,28.12
2022-09-24T08:26:14.541Z,28.12
2022-09-24T08:27:17.330Z,33.75
2022-09-24T08:28:14.529Z,33.75
2022-09-24T08:29:14.490Z,33.75
2022-09-24T08:30:14.478Z,39.38
2022-09-24T08:31:14.592Z,39.38
2022-09-24T08:32:14.484Z,39.38
2022-09-24T08:33:14.447Z,39.38
2022-09-24T08:34:14.428Z,39.38
2022-09-24T08:35:14.421Z,33.75
2022-09-24T08:36:14.413Z,33.75
2022-09-24T08:37:14.430Z,33.75
2022-09-24T08:38:14.391Z,33.75
2022-09-24T08:39:14.382Z,33.75
2022-09-24T08:40:22.747Z,33.75
2022-09-24T08:41:14.357Z,33.75
2022-09-24T08:42:14.373Z,28.12
2022-09-24T08:43:14.336Z,28.12
2022-09-24T08:44:14.323Z,28.12
2022-09-24T08:45:14.314Z,28.12
2022-09-24T08:46:14.394Z,28.12
2022-09-24T08:47:14.425Z,33.75
2022-09-24T08:48:14.282Z,33.75
2022-09-24T08:49:14.286Z,33.75
2022-09-24T08:50:14.268Z,33.75
2022-09-24T08:51:14.248Z,39.38
2022-09-24T08:52:14.254Z,39.38
2022-09-24T08:53:14.265Z,45.00
2022-09-24T08:54:14.217Z,45.00
2022-09-24T08:55:14.213Z,45.00
2022-09-24T08:56:14.192Z,50.62
2022-09-24T08:57:14.216Z,50.62
2022-09-24T08:58:14.200Z,50.62
2022-09-24T08:59:14.162Z,50.62
2022-09-24T09:00:14.158Z,56.25
2022-09-24T09:01:14.209Z,56.25
2022-09-24T09:02:14.327Z,61.88
2022-09-24T09:03:14.224Z,61.88
2022-09-24T09:04:14.108Z,61.88
2022-09-24T09:05:14.098Z,67.50
2022-09-24T09:06:14.092Z,67.50
2022-09-24T09:07:14.083Z,67.50
2022-09-24T09:08:42.241Z,67.50
2022-09-24T09:09:15.072Z,67.50
2022-09-24T09:10:14.042Z,67.50
2022-09-24T09:11:14.064Z,67.50
2022-09-24T09:12:14.027Z,67.50
2022-09-24T09:13:14.020Z,67.50
2022-09-24T09:14:14.003Z,67.50
2022-09-24T09:15:13.988Z,73.12
2022-09-24T09:16:14.026Z,73.12
2022-09-24T09:17:14.010Z,73.12
2022-09-24T09:18:13.971Z,67.50
2022-09-24T09:19:14.042Z,67.50
2022-09-24T09:20:13.938Z,61.88
2022-09-24T09:21:13.923Z,56.25
2022-09-24T09:22:13.939Z,56.25
2022-09-24T09:23:13.935Z,50.62
2022-09-24T09:24:13.890Z,50.62
2022-09-24T09:25:13.879Z,56.25
2022-09-24T09:26:13.931Z,56.25
2022-09-24T09:27:13.859Z,56.25
2022-09-24T09:28:13.872Z,61.88
2022-09-24T09:29:13.845Z,67.50
2022-09-24T09:30:14.460Z,73.12
2022-09-24T09:31:13.889Z,78.75
2022-09-24T09:32:13.801Z,84.38
2022-09-24T09:33:13.819Z,90.00
2022-09-24T09:34:13.795Z,95.62
2022-09-24T09:35:13.795Z,101.25
2022-09-24T09:36:13.757Z,101.25
2022-09-24T09:37:13.799Z,95.62
2022-09-24T09:38:13.743Z,95.62
2022-09-24T09:39:13.740Z,90.00
2022-09-24T09:40:13.762Z,84.38
2022-09-24T09:41:13.733Z,78.75
2022-09-24T09:42:13.691Z,78.75
2022-09-24T09:43:13.704Z,73.12
2022-09-24T09:44:13.679Z,73.12
2022-09-24T09:45:13.660Z,73.12
2022-09-24T09:46:13.728Z,67.50
2022-09-24T09:47:13.646Z,67.50
2022-09-24T09:48:13.677Z,67.50
2022-09-24T09:49:13.625Z,67.50
2022-09-24T09:50:13.613Z,73.12
2022-09-24T09:51:13.633Z,73.12
2022-09-24T09:52:13.590Z,73.12
2022-09-24T09:53:13.609Z,73.12
2022-09-24T09:54:13.575Z,73.12
2022-09-24T09:55:13.579Z,78.75
2022-09-24T09:56:13.553Z,78.75
2022-09-24T09:57:13.542Z,78.75
2022-09-24T09:58:13.536Z,84.38
2022-09-24T09:59:13.538Z,78.75
2022-09-24T10:00:13.540Z,78.75
2022-09-24T10:01:13.505Z,78.75
2022-09-24T10:02:13.599Z,78.75
2022-09-24T10:03:13.646Z,73.12
2022-09-24T10:04:13.459Z,73.12
2022-09-24T10:05:17.899Z,67.50
2022-09-24T10:06:14.438Z,67.50
2022-09-24T10:07:13.536Z,67.50
2022-09-24T10:08:13.419Z,67.50
2022-09-24T10:09:13.431Z,67.50
2022-09-24T10:10:13.403Z,67.50
2022-09-24T10:11:13.410Z,61.88
2022-09-24T10:12:13.377Z,61.88
2022-09-24T10:13:13.370Z,61.88
2022-09-24T10:14:13.375Z,61.88
2022-09-24T10:15:13.336Z,61.88
2022-09-24T10:16:13.414Z,61.88
2022-09-24T10:17:13.350Z,61.88
2022-09-24T10:18:13.302Z,61.88
2022-09-24T10:19:13.302Z,61.88
2022-09-24T10:20:13.288Z,67.50
2022-09-24T10:21:13.275Z,67.50
2022-09-24T10:22:13.291Z,73.12
2022-09-24T10:23:13.274Z,73.12
2022-09-24T10:24:13.244Z,73.12
2022-09-24T10:25:13.233Z,73.12
2022-09-24T10:26:13.246Z,73.12
2022-09-24T10:27:13.245Z,67.50
2022-09-24T10:28:13.194Z,67.50
2022-09-24T10:29:13.184Z,67.50
2022-09-24T10:30:13.179Z,61.88
2022-09-24T10:31:13.285Z,61.88
2022-09-24T10:32:13.152Z,61.88
2022-09-24T10:33:13.164Z,56.25
2022-09-24T10:34:13.157Z,56.25
2022-09-24T10:35:13.125Z,56.25
2022-09-24T10:36:13.105Z,56.25
2022-09-24T10:37:13.159Z,56.25
2022-09-24T10:38:13.086Z,56.25
2022-09-24T10:39:13.116Z,56.25
2022-09-24T10:40:13.286Z,50.62
2022-09-24T10:41:13.056Z,50.62
2022-09-24T10:42:13.073Z,50.62
2022-09-24T10:43:13.035Z,50.62
2022-09-24T10:44:13.105Z,50.62
2022-09-24T10:45:13.027Z,50.62
2022-09-24T10:46:13.171Z,50.62
2022-09-24T10:47:13.029Z,50.62
2022-09-24T10:48:12.978Z,56.25
2022-09-24T10:49:12.981Z,56.25
2022-09-24T10:50:13.046Z,56.25
2022-09-24T10:51:12.950Z,56.25
2022-09-24T10:52:12.930Z,56.25
2022-09-24T10:53:12.922Z,61.88
2022-09-24T10:54:12.928Z,61.88
2022-09-24T10:55:12.920Z,61.88
2022-09-24T10:56:12.900Z,61.88
2022-09-24T10:57:12.901Z,61.88
2022-09-24T10:58:12.913Z,56.25
2022-09-24T10:59:12.895Z,56.25
2022-09-24T11:00:12.947Z,56.25
2022-09-24T11:01:12.838Z,50.62
2022-09-24T11:02:12.964Z,45.00
2022-09-24T11:03:12.918Z,45.00
2022-09-24T11:04:12.805Z,45.00
2022-09-24T11:05:12.791Z,45.00
2022-09-24T11:06:12.805Z,39.38
2022-09-24T11:07:12.768Z,39.38
2022-09-24T11:08:12.761Z,39.38
2022-09-24T11:09:12.749Z,39.38
2022-09-24T11:10:12.815Z,45.00
2022-09-24T11:11:12.765Z,45.00
2022-09-24T11:12:12.903Z,39.38
2022-09-24T11:13:12.701Z,39.38
2022-09-24T11:14:12.686Z,39.38
2022-09-24T11:15:12.685Z,39.38
2022-09-24T11:16:12.737Z,39.38
2022-09-24T11:17:12.661Z,39.38
2022-09-24T11:18:12.651Z,33.75
2022-09-24T11:19:12.637Z,33.75
2022-09-24T11:20:12.699Z,33.75
2022-09-24T11:21:12.641Z,33.75
2022-09-24T11:22:12.653Z,39.38
2022-09-24T11:23:12.594Z,39.38
2022-09-24T11:24:12.673Z,39.38
2022-09-24T11:25:12.579Z,39.38
2022-09-24T11:26:12.602Z,39.38
2022-09-24T11:27:12.570Z,45.00
2022-09-24T11:28:12.629Z,45.00
2022-09-24T11:29:12.529Z,45.00
2022-09-24T11:30:12.516Z,45.00
2022-09-24T11:31:12.588Z,45.00
2022-09-24T11:32:12.496Z,45.00
2022-09-24T11:33:12.485Z,45.00
2022-09-24T11:34:12.565Z,45.00
2022-09-24T11:35:12.465Z,45.00
2022-09-24T11:36:12.459Z,45.00
2022-09-24T11:37:12.441Z,45.00
2022-09-24T11:38:12.430Z,45.00
2022-09-24T11:39:12.435Z,50.62
2022-09-24T11:40:12.586Z,50.62
2022-09-24T11:41:12.402Z,50.62
2022-09-24T11:42:12.440Z,50.62
2022-09-24T11:43:12.403Z,50.62
2022-09-24T11:44:12.367Z,50.62
2022-09-24T11:45:12.396Z,50.62
2022-09-24T11:46:12.392Z,50.62
2022-09-24T11:47:12.362Z,56.25
2022-09-24T11:48:12.328Z,56.25
2022-09-24T11:49:12.345Z,61.88
2022-09-24T11:50:12.306Z,61.88
2022-09-24T11:51:12.295Z,61.88
2022-09-24T11:52:12.285Z,61.88
2022-09-24T11:53:12.277Z,61.88
2022-09-24T11:54:12.285Z,61.88
2022-09-24T11:55:12.257Z,61.88
2022-09-24T11:56:13.458Z,61.88
2022-09-24T11:57:12.264Z,56.25
2022-09-24T11:58:12.220Z,56.25
2022-09-24T11:59:12.255Z,50.62
2022-09-24T12:00:12.203Z,50.62
2022-09-24T12:01:12.185Z,45.00
2022-09-24T12:02:12.251Z,45.00
2022-09-24T12:03:12.255Z,45.00
2022-09-24T12:04:12.255Z,45.00
2022-09-24T12:05:12.169Z,45.00
2022-09-24T12:06:12.152Z,45.00
2022-09-24T12:07:12.122Z,45.00
2022-09-24T12:08:12.110Z,45.00
2022-09-24T12:09:12.094Z,45.00
2022-09-24T12:10:12.097Z,39.38
2022-09-24T12:11:12.102Z,39.38
2022-09-24T12:12:12.067Z,39.38
2022-09-24T12:13:12.087Z,39.38
2022-09-24T12:14:12.112Z,39.38
2022-09-24T12:15:12.183Z,39.38
2022-09-24T12:16:12.140Z,45.00
2022-09-24T12:17:12.061Z,45.00
2022-09-24T12:18:12.008Z,45.00
2022-09-24T12:19:11.987Z,45.00
2022-09-24T12:20:11.976Z,45.00
2022-09-24T12:21:12.092Z,45.00
2022-09-24T12:22:11.960Z,45.00
2022-09-24T12:23:12.023Z,45.00
2022-09-24T12:24:12.210Z,39.38
2022-09-24T12:25:11.924Z,39.38
2022-09-24T12:26:11.943Z,39.38
2022-09-24T12:27:11.930Z,39.38
2022-09-24T12:28:11.893Z,39.38
2022-09-24T12:29:11.895Z,39.38
2022-09-24T12:30:11.925Z,33.75
2022-09-24T12:31:12.597Z,33.75
2022-09-24T12:32:11.849Z,33.75
2022-09-24T12:33:11.868Z,33.75
2022-09-24T12:34:11.886Z,33.75
2022-09-24T12:35:11.826Z,33.75
2022-09-24T12:36:11.858Z,33.75
2022-09-24T12:37:11.793Z,33.75
2022-09-24T12:38:11.808Z,33.75
2022-09-24T12:39:11.797Z,33.75
2022-09-24T12:40:11.945Z,33.75
2022-09-24T12:41:11.760Z,33.75
2022-09-24T12:42:11.770Z,33.75
2022-09-24T12:43:11.757Z,33.75
2022-09-24T12:44:11.864Z,33.75
2022-09-24T12:45:11.715Z,33.75
2022-09-24T12:46:11.778Z,33.75
2022-09-24T12:47:11.709Z,33.75
2022-09-24T12:48:11.735Z,33.75
2022-09-24T12:49:11.690Z,33.75
2022-09-24T12:50:11.658Z,33.75
2022-09-24T12:51:11.645Z,33.75
2022-09-24T12:52:11.630Z,39.38
2022-09-24T12:53:11.682Z,39.38
2022-09-24T12:54:11.703Z,39.38
2022-09-24T12:55:11.597Z,39.38
2022-09-24T12:56:11.610Z,45.00
2022-09-24T12:57:11.574Z,45.00
2022-09-24T12:58:11.567Z,45.00
2022-09-24T12:59:11.605Z,50.62
2022-09-24T13:00:11.568Z,45.00
2022-09-24T13:01:11.532Z,50.62
2022-09-24T13:02:11.718Z,50.62
2022-09-24T13:03:11.750Z,50.62
2022-09-24T13:04:11.567Z,50.62
2022-09-24T13:05:11.535Z,61.88